Gray, LA (70359)

6:27 PM CDT on April 25, 2015 (GMT -0500)
Jerry's House (Schriever) | | Change Station
CLOSE
Current Station
Personal Weather Station
Location: Thibodaux, LA
Elevation: 11 ft
Nearby Weather Stations

Elev 11 ft 29.76 °N, 90.82 °W | Updated 20 seconds ago

Overcast
Overcast
73.5 °F
Feels Like 72 °F
N
4.0
Wind Variable Wind from SW
Gusts 5.0 mph

Today
High -- | Low -- °F
--% Chance of Precip.
Yesterday
High -- | Low -- °F
Precip. -- in
6:26 AM 7:36 PM
Waxing Crescent, 50% visible
Pressure 29.71 in
Visibility 7.0 miles
Clouds Mostly Cloudy 6000 ft
Heat Index 72 °F
Dew Point 69 °F
Humidity 86%
Rainfall 0.27 in
Snow Depth Not available.
UV 1 out of 12
Pollen 5.90 out of 12
Air Quality Not available.
Flu Activity Sporadic
METAR KHUM 252250Z 12005KT 7SM BKN060 22/20 A2971 RMK VA RY18 ATIS S....LJ

More Conditions Fewer Conditions

Pressure 29.71 in
Visibility 7.0 miles
Clouds Mostly Cloudy 6000 ft
Heat Index 72 °F
Dew Point 69 °F
Humidity 86%
Rainfall 0.27 in
Snow Depth Not available.
UV 1 out of 12
Pollen 5.90 out of 12
Air Quality Not available.
Flu Activity Sporadic
METAR KHUM 252250Z 12005KT 7SM BKN060 22/20 A2971 RMK VA RY18 ATIS S....LJ

More Conditions Fewer Conditions

10-Day Weather Forecast

Almanac

Astronomy

Apr. 25, 2015 Rise Set
Actual Time
Civil Twilight
Nautical Twilight
Astronomical Twilight
Moon
Length of Visible Light
Length of Day
Tomorrow will be .
, % of the Moon is Illuminated

Today's Extremes

State Highs State Lows

Community

WunderPhotos

Upload Photos

1,816,845 photos uploaded!

WunderBlogs® & News

Nearby

Air Quality

  Air Quality AQ Index Pollutant
Not available.

Snow Depth

Station Depth Elevation

Earthquake Activity

City Distance Mag. Time & Date
Minimum magnitude displayed is 2.5.

Coastal Water Temperatures

Place Temperature

Stations

Nearby Weather Stations

Station Location Temp. Windchill Dew Point Humidity Wind Precip. Elev Updated Type